createdAt,value
2022-12-15T00:00:52.868Z,75.27
2022-12-15T00:04:21.607Z,75.26
2022-12-15T00:07:43.165Z,75.28
2022-12-15T00:11:04.457Z,75.30
2022-12-15T00:14:27.471Z,75.33
2022-12-15T00:17:49.010Z,75.36
2022-12-15T00:21:10.631Z,75.40
2022-12-15T00:24:32.226Z,75.43
2022-12-15T00:27:53.691Z,75.52
2022-12-15T00:31:17.570Z,75.62
2022-12-15T00:34:39.259Z,75.71
2022-12-15T00:38:00.893Z,75.76
2022-12-15T00:41:04.881Z,75.81
2022-12-15T00:44:07.878Z,75.83
2022-12-15T00:47:10.878Z,75.84
2022-12-15T00:50:32.613Z,75.83
2022-12-15T00:53:54.028Z,75.80
2022-12-15T00:57:16.168Z,75.81
2022-12-15T01:00:38.338Z,75.79
2022-12-15T01:03:59.921Z,75.79
2022-12-15T01:07:21.636Z,75.81
2022-12-15T01:10:43.004Z,75.84
2022-12-15T01:14:05.018Z,75.86
2022-12-15T01:17:26.753Z,75.89
2022-12-15T01:20:32.788Z,75.93
2022-12-15T01:23:37.708Z,75.95
2022-12-15T01:26:40.718Z,75.92
2022-12-15T01:29:43.903Z,75.94
2022-12-15T01:32:46.969Z,75.94
2022-12-15T01:36:00.741Z,75.90
2022-12-15T01:39:03.810Z,75.93
2022-12-15T01:42:12.399Z,76.01
2022-12-15T01:45:24.464Z,75.98
2022-12-15T01:48:38.492Z,75.98
2022-12-15T01:51:47.227Z,75.99
2022-12-15T01:54:54.046Z,75.94
2022-12-15T01:58:03.462Z,75.90
2022-12-15T02:01:07.386Z,75.90
2022-12-15T02:04:10.779Z,75.87
2022-12-15T02:07:15.756Z,75.85
2022-12-15T02:10:18.918Z,75.86
2022-12-15T02:13:28.461Z,75.90
2022-12-15T02:17:14.836Z,75.88
2022-12-15T02:20:39.184Z,75.92
2022-12-15T02:24:04.489Z,75.90
2022-12-15T02:27:10.119Z,75.86
2022-12-15T02:30:42.428Z,75.82
2022-12-15T02:33:54.872Z,75.78
2022-12-15T02:37:26.230Z,75.78
2022-12-15T02:40:29.343Z,75.78
2022-12-15T02:43:37.171Z,75.69
2022-12-15T02:46:46.029Z,75.69
2022-12-15T02:50:06.927Z,75.71
2022-12-15T02:53:35.867Z,75.70
2022-12-15T02:56:48.152Z,75.70
2022-12-15T02:59:57.836Z,75.71
2022-12-15T03:03:01.505Z,75.76
2022-12-15T03:06:04.878Z,75.71
2022-12-15T03:09:07.947Z,75.62
2022-12-15T03:12:11.076Z,75.59
2022-12-15T03:15:14.091Z,75.55
2022-12-15T03:18:17.182Z,75.52
2022-12-15T03:21:20.273Z,75.48
2022-12-15T03:24:23.232Z,75.40
2022-12-15T03:27:26.268Z,75.41
2022-12-15T03:30:29.401Z,75.36
2022-12-15T03:33:34.642Z,75.33
2022-12-15T03:36:38.386Z,75.33
2022-12-15T03:39:41.406Z,75.27
2022-12-15T03:42:48.585Z,75.21
2022-12-15T03:45:51.749Z,75.14
2022-12-15T03:48:54.775Z,75.09
2022-12-15T03:51:57.812Z,75.02
2022-12-15T03:55:00.754Z,74.94
2022-12-15T03:58:03.976Z,74.87
2022-12-15T04:01:23.394Z,74.79
2022-12-15T04:04:26.525Z,74.72
2022-12-15T04:07:29.477Z,74.69
2022-12-15T04:10:35.311Z,74.61
2022-12-15T04:13:38.413Z,74.58
2022-12-15T04:16:41.564Z,74.52
2022-12-15T04:20:03.146Z,74.48
2022-12-15T04:23:09.552Z,74.37
2022-12-15T04:26:31.352Z,74.18
2022-12-15T04:29:52.997Z,73.98
2022-12-15T04:33:14.617Z,73.90
2022-12-15T04:36:36.545Z,73.77
2022-12-15T04:40:05.300Z,73.68
2022-12-15T04:43:26.957Z,73.51
2022-12-15T04:46:48.535Z,73.44
2022-12-15T04:50:10.259Z,73.41
2022-12-15T04:53:35.122Z,73.39
2022-12-15T04:56:56.845Z,73.33
2022-12-15T05:00:18.318Z,73.28
2022-12-15T05:03:42.802Z,73.18
2022-12-15T05:07:04.135Z,73.13
2022-12-15T05:10:26.466Z,73.15
2022-12-15T05:13:48.220Z,73.14
2022-12-15T05:17:09.834Z,73.11
2022-12-15T05:20:31.562Z,73.10
2022-12-15T05:23:53.085Z,73.06
2022-12-15T05:27:15.008Z,73.00
2022-12-15T05:30:36.372Z,72.97
2022-12-15T05:33:39.385Z,72.98
2022-12-15T05:36:42.559Z,73.00
2022-12-15T05:39:45.611Z,73.05
2022-12-15T05:42:50.193Z,73.04
2022-12-15T05:45:53.524Z,73.04
2022-12-15T05:48:56.581Z,73.02
2022-12-15T05:51:59.558Z,73.01
2022-12-15T05:55:02.659Z,72.96
2022-12-15T05:58:05.634Z,72.95
2022-12-15T06:01:12.011Z,72.91
2022-12-15T06:04:15.240Z,72.86
2022-12-15T06:07:18.330Z,72.79
2022-12-15T06:10:24.019Z,72.73
2022-12-15T06:13:28.949Z,72.69
2022-12-15T06:16:33.209Z,72.64
2022-12-15T06:19:36.286Z,72.57
2022-12-15T06:22:39.417Z,72.54
2022-12-15T06:25:44.825Z,72.54
2022-12-15T06:28:49.623Z,72.50
2022-12-15T06:31:52.724Z,72.45
2022-12-15T06:34:55.789Z,72.41
2022-12-15T06:37:58.759Z,72.36
2022-12-15T06:41:04.090Z,72.33
2022-12-15T06:44:07.845Z,72.28
2022-12-15T06:47:10.917Z,72.23
2022-12-15T06:50:14.015Z,72.18
2022-12-15T06:53:19.829Z,72.17
2022-12-15T06:56:32.605Z,72.15
2022-12-15T06:59:36.879Z,72.15
2022-12-15T07:02:42.477Z,72.10
2022-12-15T07:05:46.715Z,72.06
2022-12-15T07:08:56.820Z,72.10
2022-12-15T07:11:59.988Z,72.13
2022-12-15T07:15:03.157Z,72.14
2022-12-15T07:18:06.750Z,72.16
2022-12-15T07:21:10.538Z,72.12
2022-12-15T07:24:14.040Z,72.06
2022-12-15T07:27:18.222Z,72.00
2022-12-15T07:30:21.207Z,71.93
2022-12-15T07:33:24.210Z,71.91
2022-12-15T07:36:30.155Z,71.86
2022-12-15T07:39:33.370Z,71.85
2022-12-15T07:42:36.481Z,71.77
2022-12-15T07:45:39.552Z,71.59
2022-12-15T07:48:42.882Z,71.48
2022-12-15T07:51:46.053Z,71.34
2022-12-15T07:54:49.120Z,71.32
2022-12-15T07:57:52.124Z,71.22
2022-12-15T08:01:02.916Z,71.03
2022-12-15T08:04:06.367Z,70.85
2022-12-15T08:07:11.476Z,70.64
2022-12-15T08:10:14.500Z,70.64
2022-12-15T08:13:38.109Z,70.58
2022-12-15T08:16:40.663Z,70.47
2022-12-15T08:19:44.084Z,70.44
2022-12-15T08:22:47.096Z,70.38
2022-12-15T08:25:50.151Z,70.27
2022-12-15T08:28:53.582Z,70.20
2022-12-15T08:31:56.724Z,70.03
2022-12-15T08:34:59.959Z,69.86
2022-12-15T08:38:05.734Z,69.55
2022-12-15T08:41:17.121Z,69.39
2022-12-15T08:44:20.209Z,69.37
2022-12-15T08:47:23.290Z,69.20
2022-12-15T08:50:26.300Z,69.00
2022-12-15T08:53:31.889Z,68.96
2022-12-15T08:56:36.010Z,68.74
2022-12-15T08:59:39.028Z,68.66
2022-12-15T09:02:42.089Z,68.64
2022-12-15T09:05:45.197Z,68.60
2022-12-15T09:08:50.507Z,68.53
2022-12-15T09:11:53.734Z,68.29
2022-12-15T09:14:56.872Z,68.14
2022-12-15T09:18:00.582Z,68.06
2022-12-15T09:21:06.072Z,68.13
2022-12-15T09:24:18.379Z,68.14
2022-12-15T09:27:29.343Z,68.08
2022-12-15T09:30:32.409Z,68.03
2022-12-15T09:33:36.497Z,68.10
2022-12-15T09:36:40.879Z,68.11
2022-12-15T09:39:44.064Z,68.05
2022-12-15T09:43:05.085Z,67.97
2022-12-15T09:46:42.319Z,67.89
2022-12-15T09:49:59.070Z,67.82
2022-12-15T09:53:03.439Z,67.76
2022-12-15T09:56:21.643Z,67.65
2022-12-15T10:00:01.934Z,67.52
2022-12-15T10:03:45.366Z,67.43
2022-12-15T10:07:07.883Z,67.35
2022-12-15T10:10:19.993Z,67.33
2022-12-15T10:13:34.411Z,67.03
2022-12-15T10:16:52.960Z,66.94
2022-12-15T10:20:06.510Z,66.88
2022-12-15T10:23:15.375Z,66.71
2022-12-15T10:26:23.363Z,66.81
2022-12-15T10:33:25.471Z,66.65
2022-12-15T10:36:31.771Z,66.42
2022-12-15T10:39:43.644Z,66.23
2022-12-15T10:42:50.074Z,66.21
2022-12-15T10:46:26.827Z,66.34
2022-12-15T10:49:30.680Z,66.28
2022-12-15T10:52:37.776Z,66.27
2022-12-15T10:55:49.820Z,66.20
2022-12-15T10:58:57.013Z,66.20
2022-12-15T11:02:24.653Z,66.41
2022-12-15T11:05:30.020Z,66.45
2022-12-15T11:08:33.138Z,66.45
2022-12-15T11:12:05.711Z,66.50
2022-12-15T11:15:32.099Z,66.43
2022-12-15T11:18:42.567Z,66.48
2022-12-15T11:21:52.462Z,66.54
2022-12-15T11:25:11.267Z,66.61
2022-12-15T11:28:33.009Z,66.57
2022-12-15T11:31:41.851Z,66.51
2022-12-15T11:34:46.886Z,66.61
2022-12-15T11:37:56.644Z,66.45
2022-12-15T11:41:17.861Z,66.42
2022-12-15T11:45:02.949Z,66.49
2022-12-15T11:48:14.372Z,66.54
2022-12-15T11:51:24.484Z,66.54
2022-12-15T11:54:39.243Z,66.43
2022-12-15T11:57:57.935Z,66.40
2022-12-15T12:01:17.160Z,66.32
2022-12-15T12:04:24.959Z,66.20
2022-12-15T12:07:49.802Z,66.21
2022-12-15T12:11:05.627Z,66.23
2022-12-15T12:14:23.855Z,66.30
2022-12-15T12:17:48.802Z,66.30
2022-12-15T12:21:22.218Z,66.37
2022-12-15T12:24:28.860Z,66.37
2022-12-15T12:27:48.797Z,66.37
2022-12-15T12:30:56.421Z,66.35
2022-12-15T12:34:08.938Z,66.38
2022-12-15T12:37:35.597Z,66.45
2022-12-15T12:40:38.675Z,66.54
2022-12-15T12:43:50.219Z,66.54
2022-12-15T12:46:57.906Z,66.66
2022-12-15T12:50:07.968Z,66.80
2022-12-15T12:53:27.416Z,66.88
2022-12-15T12:56:33.471Z,67.04
2022-12-15T12:59:39.412Z,67.26
2022-12-15T13:02:50.758Z,67.29
2022-12-15T13:05:55.024Z,67.30
2022-12-15T13:09:00.835Z,67.43
2022-12-15T13:12:20.788Z,67.42
2022-12-15T13:15:29.958Z,67.52
2022-12-15T13:18:55.799Z,67.69
2022-12-15T13:21:59.459Z,67.67
2022-12-15T13:25:23.633Z,67.57
2022-12-15T13:28:42.900Z,67.61
2022-12-15T13:31:50.316Z,67.67
2022-12-15T13:34:53.892Z,67.64
2022-12-15T13:38:03.122Z,67.61
2022-12-15T13:41:22.922Z,67.64
2022-12-15T13:44:41.884Z,67.68
2022-12-15T13:47:55.828Z,67.76
2022-12-15T13:51:18.117Z,67.80
2022-12-15T13:54:34.115Z,67.64
2022-12-15T13:57:51.604Z,67.71
2022-12-15T14:00:57.159Z,67.53
2022-12-15T14:04:15.809Z,67.51
2022-12-15T14:07:19.065Z,67.37
2022-12-15T14:10:29.818Z,67.12
2022-12-15T14:13:36.511Z,66.93
2022-12-15T14:16:40.259Z,67.03
2022-12-15T14:19:46.729Z,67.15
2022-12-15T14:22:56.844Z,67.26
2022-12-15T14:26:08.905Z,67.30
2022-12-15T14:29:15.218Z,67.40
2022-12-15T14:32:18.512Z,67.43
2022-12-15T14:35:39.404Z,67.86
2022-12-15T14:38:45.348Z,68.17
2022-12-15T14:41:51.809Z,67.87
2022-12-15T14:44:58.082Z,67.74
2022-12-15T14:48:39.500Z,67.54
2022-12-15T14:51:38.500Z,67.36
2022-12-15T14:54:52.738Z,67.47
2022-12-15T14:57:56.084Z,67.54
2022-12-15T15:01:01.034Z,67.52
2022-12-15T15:04:07.626Z,67.47
2022-12-15T15:07:19.187Z,67.33
2022-12-15T15:10:29.959Z,67.25
2022-12-15T15:13:40.799Z,67.25
2022-12-15T15:16:44.586Z,67.29
2022-12-15T15:20:00.693Z,67.16
2022-12-15T15:23:12.875Z,67.19
2022-12-15T15:26:16.737Z,67.36
2022-12-15T15:29:38.836Z,67.48
2022-12-15T15:32:54.089Z,67.67
2022-12-15T15:36:02.430Z,67.91
2022-12-15T15:39:16.248Z,68.13
2022-12-15T15:42:19.386Z,68.29
2022-12-15T15:45:22.850Z,68.39
2022-12-15T15:48:31.272Z,68.47
2022-12-15T15:51:35.515Z,68.53
2022-12-15T15:54:38.953Z,68.66
2022-12-15T15:57:42.331Z,68.72
2022-12-15T16:00:45.488Z,68.77
2022-12-15T16:03:48.703Z,68.77
2022-12-15T16:06:53.010Z,68.79
2022-12-15T16:09:56.982Z,68.67
2022-12-15T16:13:02.206Z,68.62
2022-12-15T16:16:06.933Z,68.58
2022-12-15T16:19:12.048Z,68.52
2022-12-15T16:22:18.154Z,68.56
2022-12-15T16:25:32.870Z,68.66
2022-12-15T16:28:40.740Z,68.74
2022-12-15T16:31:45.727Z,68.73
2022-12-15T16:34:51.509Z,67.87
2022-12-15T16:37:54.944Z,67.29
2022-12-15T16:41:04.837Z,67.21
2022-12-15T16:44:12.562Z,67.31
2022-12-15T16:47:16.159Z,67.55
2022-12-15T16:50:21.819Z,67.84
2022-12-15T16:53:26.671Z,68.17
2022-12-15T16:56:33.165Z,68.43
2022-12-15T16:59:36.417Z,68.66
2022-12-15T17:02:42.068Z,68.86
2022-12-15T17:05:49.603Z,69.10
2022-12-15T17:08:56.665Z,69.32
2022-12-15T17:12:00.582Z,69.66
2022-12-15T17:15:16.033Z,69.88
2022-12-15T17:18:24.883Z,70.17
2022-12-15T17:21:54.646Z,70.33
2022-12-15T17:24:57.731Z,70.41
2022-12-15T17:28:01.366Z,70.54
2022-12-15T17:31:04.585Z,70.63
2022-12-15T17:34:22.000Z,70.77
2022-12-15T17:37:28.105Z,70.89
2022-12-15T17:40:43.223Z,71.07
2022-12-15T17:44:09.675Z,71.19
2022-12-15T17:47:14.740Z,71.29
2022-12-15T17:50:18.775Z,71.37
2022-12-15T17:53:24.215Z,71.47
2022-12-15T17:56:27.431Z,71.57
2022-12-15T17:59:32.290Z,71.65
2022-12-15T18:02:36.338Z,71.75
2022-12-15T18:05:39.791Z,71.81
2022-12-15T18:08:43.088Z,71.87
2022-12-15T18:11:46.967Z,71.98
2022-12-15T18:14:50.528Z,72.13
2022-12-15T18:17:54.173Z,72.22
2022-12-15T18:21:03.295Z,72.29
2022-12-15T18:24:15.050Z,72.33
2022-12-15T18:27:21.676Z,72.37
2022-12-15T18:30:26.439Z,72.41
2022-12-15T18:33:30.885Z,72.46
2022-12-15T18:36:35.371Z,72.54
2022-12-15T18:39:38.407Z,72.62
2022-12-15T18:42:41.750Z,72.72
2022-12-15T18:45:45.785Z,72.80
2022-12-15T18:48:48.793Z,72.88
2022-12-15T18:51:52.086Z,72.95
2022-12-15T18:54:55.149Z,73.02
2022-12-15T18:58:01.991Z,73.04
2022-12-15T19:01:06.825Z,73.06
2022-12-15T19:04:09.847Z,73.06
2022-12-15T19:07:12.953Z,73.08
2022-12-15T19:10:15.991Z,73.10
2022-12-15T19:13:22.492Z,73.14
2022-12-15T19:16:25.799Z,73.21
2022-12-15T19:20:10.400Z,73.27
2022-12-15T19:23:14.638Z,73.30
2022-12-15T19:26:17.592Z,73.33
2022-12-15T19:29:23.222Z,73.43
2022-12-15T19:32:26.921Z,73.47
2022-12-15T19:35:30.033Z,73.54
2022-12-15T19:38:36.533Z,73.62
2022-12-15T19:41:39.536Z,73.68
2022-12-15T19:44:42.515Z,73.72
2022-12-15T19:47:45.577Z,73.80
2022-12-15T19:50:51.863Z,73.85
2022-12-15T19:53:56.526Z,73.89
2022-12-15T19:56:59.519Z,73.93
2022-12-15T20:00:06.551Z,73.97
2022-12-15T20:03:14.999Z,74.03
2022-12-15T20:06:19.999Z,74.07
2022-12-15T20:09:23.022Z,74.12
2022-12-15T20:12:26.172Z,74.19
2022-12-15T20:15:29.472Z,74.24
2022-12-15T20:18:32.912Z,74.29
2022-12-15T20:21:38.784Z,74.34
2022-12-15T20:24:43.221Z,74.37
2022-12-15T20:27:47.720Z,74.42
2022-12-15T20:30:51.507Z,74.48
2022-12-15T20:33:54.721Z,74.54
2022-12-15T20:36:57.852Z,74.60
2022-12-15T20:40:01.009Z,74.66
2022-12-15T20:43:11.491Z,74.70
2022-12-15T20:46:19.648Z,74.73
2022-12-15T20:49:23.910Z,74.77
2022-12-15T20:52:27.260Z,74.77
2022-12-15T20:55:31.482Z,74.81
2022-12-15T20:58:40.188Z,74.83
2022-12-15T21:01:44.599Z,74.84
2022-12-15T21:04:48.125Z,74.84
2022-12-15T21:07:51.730Z,74.81
2022-12-15T21:10:58.502Z,74.83
2022-12-15T21:14:04.667Z,74.83
2022-12-15T21:17:18.009Z,74.89
2022-12-15T21:20:21.041Z,74.94
2022-12-15T21:23:27.491Z,74.98
2022-12-15T21:26:30.508Z,75.07
2022-12-15T21:29:35.324Z,75.12
2022-12-15T21:32:38.483Z,75.18
2022-12-15T21:35:43.158Z,75.23
2022-12-15T21:38:49.034Z,75.31
2022-12-15T21:41:52.752Z,75.36
2022-12-15T21:44:58.240Z,75.44
2022-12-15T21:48:19.689Z,75.49
2022-12-15T21:51:22.752Z,75.54
2022-12-15T21:54:31.337Z,75.59
2022-12-15T21:57:34.665Z,75.67
2022-12-15T22:00:42.292Z,75.73
2022-12-15T22:03:52.676Z,75.80
2022-12-15T22:06:57.693Z,75.82
2022-12-15T22:10:00.680Z,75.87
2022-12-15T22:13:03.869Z,75.91
2022-12-15T22:16:08.779Z,75.94
2022-12-15T22:19:13.606Z,75.98
2022-12-15T22:22:16.862Z,76.04
2022-12-15T22:25:23.461Z,76.07
2022-12-15T22:28:28.643Z,76.09
2022-12-15T22:31:31.705Z,76.12
2022-12-15T22:34:34.891Z,76.17
2022-12-15T22:37:37.907Z,76.20
2022-12-15T22:40:40.968Z,76.25
2022-12-15T22:43:46.639Z,76.28
2022-12-15T22:46:52.229Z,76.30
2022-12-15T22:49:57.105Z,76.33
2022-12-15T22:53:00.822Z,76.33
2022-12-15T22:56:12.713Z,76.34
2022-12-15T22:59:24.536Z,76.39
2022-12-15T23:02:39.508Z,76.42
2022-12-15T23:05:42.675Z,76.41
2022-12-15T23:08:45.826Z,76.43
2022-12-15T23:11:48.916Z,76.46
2022-12-15T23:15:10.499Z,76.48
2022-12-15T23:18:13.736Z,76.52
2022-12-15T23:21:16.864Z,76.55
2022-12-15T23:24:19.821Z,76.55
2022-12-15T23:27:22.799Z,76.59
2022-12-15T23:30:26.036Z,76.60
2022-12-15T23:33:30.046Z,76.63
2022-12-15T23:36:33.272Z,76.67
2022-12-15T23:39:36.276Z,76.67
2022-12-15T23:42:39.328Z,76.68
2022-12-15T23:45:43.120Z,76.69
2022-12-15T23:48:46.158Z,76.68
2022-12-15T23:51:49.225Z,76.71
2022-12-15T23:54:52.256Z,76.72
2022-12-15T23:57:56.818Z,76.72
